Vulcan, Canada
Current Conditions -  °F | °C
As of 4:00 PM on Sunday 21 Dec 2014 (Local Time) from CYQL Reporting Station
Broken Clouds Broken Clouds  
Wind Chill: -1°   Ceiling: 17000
Heat Index:   Visibility: 40mi
Dew Point: -1°   Wind: 20mph
Humidity: 70%   Direction: 260°W
Pressure: 29.49"   Gusts: 26mph
Location:  50.4°N, 113.25°W
Report Text: CYQL 212300Z 26017G23KT 40SM FEW060 SCT095 BKN170 04/M01 A2949 RMK SC1AC2AC3 SLP010
Loading
Personal Weather Stations






























Interactive Weather Map New forecast layout! Learn more

10-Day Weather Forecast

Advertisements
Track Severe Weather on mobile